createdAt,value
2023-01-26T00:01:23.971Z,22.35
2023-01-26T00:03:51.277Z,21.38
2023-01-26T00:06:19.915Z,23.08
2023-01-26T00:08:49.683Z,23.77
2023-01-26T00:11:18.912Z,24.57
2023-01-26T00:13:45.836Z,23.40
2023-01-26T00:16:14.885Z,22.02
2023-01-26T00:18:42.357Z,23.38
2023-01-26T00:21:12.864Z,24.25
2023-01-26T00:23:39.537Z,23.70
2023-01-26T00:26:07.669Z,22.60
2023-01-26T00:28:34.295Z,23.92
2023-01-26T00:31:10.812Z,24.95
2023-01-26T00:33:37.469Z,24.23
2023-01-26T00:36:04.544Z,25.33
2023-01-26T00:38:31.133Z,25.70
2023-01-26T00:40:57.720Z,25.58
2023-01-26T00:43:24.450Z,23.10
2023-01-26T00:45:50.998Z,24.52
2023-01-26T00:48:17.705Z,24.40
2023-01-26T00:50:44.247Z,24.15
2023-01-26T00:53:10.999Z,21.95
2023-01-26T00:55:37.871Z,22.98
2023-01-26T00:58:07.243Z,20.77
2023-01-26T01:00:35.984Z,22.75
2023-01-26T01:03:02.749Z,18.88
2023-01-26T01:05:31.316Z,18.25
2023-01-26T01:07:57.988Z,18.52
2023-01-26T01:10:25.189Z,17.02
2023-01-26T01:12:51.923Z,17.38
2023-01-26T01:15:18.822Z,16.85
2023-01-26T01:17:45.430Z,18.17
2023-01-26T01:20:12.897Z,17.58
2023-01-26T01:22:39.757Z,17.90
2023-01-26T01:25:06.460Z,17.10
2023-01-26T01:27:34.547Z,17.42
2023-01-26T01:30:02.173Z,17.13
2023-01-26T01:32:28.938Z,16.33
2023-01-26T01:34:55.901Z,18.45
2023-01-26T01:37:22.585Z,17.30
2023-01-26T01:39:49.674Z,18.55
2023-01-26T01:42:16.351Z,18.30
2023-01-26T01:44:43.653Z,18.45
2023-01-26T01:47:21.144Z,19.63
2023-01-26T01:49:51.339Z,17.60
2023-01-26T01:52:26.219Z,17.35
2023-01-26T01:55:13.586Z,18.05
2023-01-26T01:57:56.026Z,18.25
2023-01-26T02:00:23.861Z,15.73
2023-01-26T02:03:13.983Z,15.85
2023-01-26T02:06:01.936Z,16.73
2023-01-26T02:08:36.386Z,15.13
2023-01-26T02:11:17.543Z,15.07
2023-01-26T02:13:47.598Z,12.93
2023-01-26T02:16:14.193Z,13.73
2023-01-26T02:18:40.780Z,13.00
2023-01-26T02:21:11.469Z,12.70
2023-01-26T02:23:54.667Z,12.07
2023-01-26T02:26:27.691Z,12.55
2023-01-26T02:28:55.165Z,13.20
2023-01-26T02:31:23.719Z,12.52
2023-01-26T02:33:50.692Z,12.95
2023-01-26T02:36:23.111Z,12.32
2023-01-26T02:39:02.775Z,11.35
2023-01-26T02:41:47.842Z,10.40
2023-01-26T02:44:15.417Z,10.15
2023-01-26T02:46:42.167Z,10.25
2023-01-26T02:49:27.440Z,9.65
2023-01-26T02:51:54.163Z,9.55
2023-01-26T02:54:38.843Z,7.60
2023-01-26T02:57:05.587Z,9.68
2023-01-26T02:59:32.246Z,9.00
2023-01-26T03:01:59.400Z,7.65
2023-01-26T03:04:26.071Z,7.25
2023-01-26T03:06:52.965Z,8.10
2023-01-26T03:09:19.544Z,7.43
2023-01-26T03:11:46.080Z,8.95
2023-01-26T03:14:14.894Z,7.70
2023-01-26T03:16:42.158Z,8.15
2023-01-26T03:19:30.828Z,9.48
2023-01-26T03:22:17.293Z,8.23
2023-01-26T03:25:02.422Z,8.18
2023-01-26T03:27:38.738Z,8.15
2023-01-26T03:30:06.105Z,7.22
2023-01-26T03:32:32.594Z,7.97
2023-01-26T03:34:59.192Z,7.40
2023-01-26T03:37:25.898Z,7.18
2023-01-26T03:40:11.281Z,7.75
2023-01-26T03:42:57.361Z,7.57
2023-01-26T03:45:42.459Z,7.13
2023-01-26T03:48:30.047Z,6.70
2023-01-26T03:51:16.167Z,6.57
2023-01-26T03:54:02.580Z,8.07
2023-01-26T03:56:32.927Z,7.25
2023-01-26T03:59:09.290Z,7.35
2023-01-26T04:01:40.748Z,7.53
2023-01-26T04:04:27.111Z,6.65
2023-01-26T04:07:12.375Z,7.80
2023-01-26T04:09:41.796Z,7.57
2023-01-26T04:12:10.282Z,6.75
2023-01-26T04:14:55.443Z,6.22
2023-01-26T04:17:40.252Z,6.80
2023-01-26T04:20:25.964Z,6.70
2023-01-26T04:22:52.839Z,7.03
2023-01-26T04:25:21.341Z,7.38
2023-01-26T04:27:47.919Z,6.65
2023-01-26T04:30:16.656Z,6.43
2023-01-26T04:32:43.609Z,6.75
2023-01-26T04:35:10.827Z,6.72
2023-01-26T04:37:38.513Z,6.68
2023-01-26T04:40:06.825Z,6.18
2023-01-26T04:42:33.437Z,6.68
2023-01-26T04:45:00.101Z,6.53
2023-01-26T04:47:28.971Z,6.50
2023-01-26T04:49:55.996Z,6.53
2023-01-26T04:52:22.674Z,6.85
2023-01-26T04:54:49.293Z,7.07
2023-01-26T04:57:15.835Z,6.97
2023-01-26T04:59:42.301Z,6.93
2023-01-26T05:02:09.600Z,6.47
2023-01-26T05:04:36.357Z,7.13
2023-01-26T05:07:02.921Z,7.65
2023-01-26T05:09:29.400Z,6.75
2023-01-26T05:12:15.851Z,6.80
2023-01-26T05:14:42.421Z,8.05
2023-01-26T05:17:08.950Z,7.90
2023-01-26T05:19:35.568Z,7.00
2023-01-26T05:22:01.976Z,6.93
2023-01-26T05:24:28.555Z,7.28
2023-01-26T05:27:15.048Z,6.97
2023-01-26T05:29:41.600Z,7.50
2023-01-26T05:32:08.065Z,7.55
2023-01-26T05:34:36.718Z,7.07
2023-01-26T05:37:03.331Z,7.75
2023-01-26T05:39:30.019Z,7.40
2023-01-26T05:41:56.981Z,7.35
2023-01-26T05:44:29.252Z,8.10
2023-01-26T05:46:55.877Z,8.20
2023-01-26T05:49:22.455Z,8.05
2023-01-26T05:51:48.949Z,7.80
2023-01-26T05:54:15.692Z,8.02
2023-01-26T05:56:42.251Z,7.55
2023-01-26T05:59:09.018Z,7.93
2023-01-26T06:01:35.681Z,7.90
2023-01-26T06:04:02.654Z,7.72
2023-01-26T06:06:29.349Z,7.50
2023-01-26T06:08:56.000Z,7.65
2023-01-26T06:11:22.568Z,8.65
2023-01-26T06:13:49.441Z,8.80
2023-01-26T06:16:16.157Z,7.53
2023-01-26T06:18:42.739Z,7.75
2023-01-26T06:21:09.329Z,7.70
2023-01-26T06:23:35.889Z,8.32
2023-01-26T06:26:03.793Z,7.78
2023-01-26T06:28:30.790Z,8.10
2023-01-26T06:31:01.494Z,7.82
2023-01-26T06:35:56.169Z,7.50
2023-01-26T06:38:22.772Z,7.90
2023-01-26T06:40:49.386Z,7.63
2023-01-26T06:43:16.019Z,7.68
2023-01-26T06:45:42.758Z,7.25
2023-01-26T06:48:09.317Z,7.82
2023-01-26T06:50:36.272Z,7.63
2023-01-26T06:53:26.361Z,8.15
2023-01-26T06:55:52.868Z,7.72
2023-01-26T06:58:19.389Z,8.13
2023-01-26T07:00:45.917Z,7.40
2023-01-26T07:03:12.525Z,8.10
2023-01-26T07:05:39.408Z,7.45
2023-01-26T07:08:08.633Z,8.30
2023-01-26T07:10:36.086Z,8.00
2023-01-26T07:13:04.622Z,7.65
2023-01-26T07:15:31.358Z,8.00
2023-01-26T07:17:58.745Z,7.28
2023-01-26T07:20:25.886Z,8.27
2023-01-26T07:22:52.809Z,7.38
2023-01-26T07:25:19.824Z,7.80
2023-01-26T07:27:46.295Z,7.07
2023-01-26T07:30:14.473Z,7.63
2023-01-26T07:32:41.411Z,7.38
2023-01-26T07:35:08.937Z,6.72
2023-01-26T07:37:35.420Z,7.30
2023-01-26T07:40:02.128Z,6.97
2023-01-26T07:42:30.956Z,6.78
2023-01-26T07:44:57.851Z,6.30
2023-01-26T07:47:24.393Z,6.72
2023-01-26T07:49:51.065Z,6.70
2023-01-26T07:52:17.555Z,7.13
2023-01-26T07:54:44.311Z,7.47
2023-01-26T07:57:12.800Z,7.43
2023-01-26T07:59:39.499Z,7.30
2023-01-26T08:02:06.279Z,7.32
2023-01-26T08:04:32.915Z,7.22
2023-01-26T08:06:59.614Z,6.97
2023-01-26T08:09:26.734Z,7.55
2023-01-26T08:11:53.339Z,7.60
2023-01-26T08:14:19.906Z,7.40
2023-01-26T08:16:46.604Z,7.32
2023-01-26T08:19:13.242Z,7.13
2023-01-26T08:21:39.813Z,6.90
2023-01-26T08:24:06.900Z,7.57
2023-01-26T08:26:33.337Z,7.25
2023-01-26T08:28:59.864Z,6.80
2023-01-26T08:31:28.188Z,7.50
2023-01-26T08:33:56.191Z,6.88
2023-01-26T08:36:23.568Z,6.75
2023-01-26T08:38:51.371Z,6.47
2023-01-26T08:41:18.824Z,6.68
2023-01-26T08:43:45.507Z,6.50
2023-01-26T08:46:12.130Z,6.85
2023-01-26T08:48:38.810Z,7.10
2023-01-26T08:51:06.742Z,9.43
2023-01-26T08:53:35.783Z,8.10
2023-01-26T08:56:03.934Z,8.52
2023-01-26T08:58:31.519Z,7.72
2023-01-26T09:00:58.143Z,8.30
2023-01-26T09:03:24.768Z,8.05
2023-01-26T09:05:51.374Z,8.18
2023-01-26T09:08:17.903Z,8.32
2023-01-26T09:10:45.219Z,8.40
2023-01-26T09:13:12.019Z,8.07
2023-01-26T09:15:38.857Z,9.07
2023-01-26T09:18:05.547Z,8.80
2023-01-26T09:20:32.324Z,8.55
2023-01-26T09:22:58.910Z,9.18
2023-01-26T09:25:25.460Z,9.45
2023-01-26T09:27:51.971Z,8.38
2023-01-26T09:30:18.780Z,9.13
2023-01-26T09:32:45.284Z,9.88
2023-01-26T09:35:14.803Z,9.32
2023-01-26T09:37:43.788Z,9.98
2023-01-26T09:40:18.424Z,9.27
2023-01-26T09:43:01.865Z,9.07
2023-01-26T09:45:40.577Z,9.52
2023-01-26T09:48:30.114Z,10.00
2023-01-26T09:51:13.205Z,9.68
2023-01-26T09:53:47.823Z,10.95
2023-01-26T09:56:20.374Z,10.45
2023-01-26T09:58:56.229Z,10.75
2023-01-26T10:01:31.656Z,9.50
2023-01-26T10:04:03.770Z,11.02
2023-01-26T10:06:32.160Z,10.70
2023-01-26T10:09:14.839Z,9.80
2023-01-26T10:11:46.515Z,11.50
2023-01-26T10:14:21.527Z,10.93
2023-01-26T10:16:51.657Z,10.75
2023-01-26T10:19:45.735Z,10.88
2023-01-26T10:22:25.332Z,10.73
2023-01-26T10:24:53.659Z,11.23
2023-01-26T10:27:20.312Z,10.27
2023-01-26T10:29:46.984Z,11.18
2023-01-26T10:32:17.102Z,11.38
2023-01-26T10:34:46.523Z,10.77
2023-01-26T10:37:29.277Z,11.60
2023-01-26T10:40:01.720Z,10.95
2023-01-26T10:42:31.312Z,10.73
2023-01-26T10:45:02.094Z,12.00
2023-01-26T10:50:24.839Z,10.52
2023-01-26T10:53:03.107Z,10.88
2023-01-26T10:55:31.676Z,10.40
2023-01-26T10:57:58.616Z,11.27
2023-01-26T11:00:35.341Z,11.20
2023-01-26T11:03:14.222Z,11.50
2023-01-26T11:05:41.153Z,11.52
2023-01-26T11:08:32.839Z,10.45
2023-01-26T11:10:59.467Z,9.63
2023-01-26T11:13:26.126Z,9.65
2023-01-26T11:16:20.701Z,9.75
2023-01-26T11:18:58.257Z,9.18
2023-01-26T11:21:33.933Z,9.43
